createdAt,value
2022-09-05T00:00:12.958Z,4.85
2022-09-05T00:02:56.245Z,5.62
2022-09-05T00:08:35.859Z,4.50
2022-09-05T00:11:41.202Z,4.65
2022-09-05T00:15:17.147Z,4.95
2022-09-05T00:18:11.909Z,4.35
2022-09-05T00:24:20.826Z,4.57
2022-09-05T00:24:36.554Z,4.65
2022-09-05T00:26:50.280Z,4.57
2022-09-05T00:31:05.501Z,4.32
2022-09-05T00:32:50.891Z,4.00
2022-09-05T00:35:31.594Z,4.87
2022-09-05T00:38:10.894Z,4.30
2022-09-05T00:40:46.275Z,4.18
2022-09-05T00:43:23.258Z,4.90
2022-09-05T00:46:04.201Z,4.78
2022-09-05T00:48:46.946Z,4.10
2022-09-05T00:51:38.497Z,4.10
2022-09-05T00:54:40.167Z,4.62
2022-09-05T00:57:17.913Z,4.40
2022-09-05T01:00:21.307Z,4.68
2022-09-05T01:02:58.024Z,4.50
2022-09-05T01:05:48.730Z,4.25
2022-09-05T01:08:45.498Z,4.25
2022-09-05T01:11:50.311Z,4.20
2022-09-05T01:14:25.481Z,4.32
2022-09-05T01:17:20.213Z,4.20
2022-09-05T01:20:21.157Z,4.60
2022-09-05T01:23:23.870Z,4.90
2022-09-05T01:26:05.538Z,4.35
2022-09-05T01:29:15.152Z,4.65
2022-09-05T01:32:17.273Z,4.05
2022-09-05T01:34:56.663Z,4.47
2022-09-05T01:37:41.014Z,5.03
2022-09-05T01:40:16.677Z,5.75
2022-09-05T01:43:15.079Z,7.25
2022-09-05T01:45:47.780Z,8.85
2022-09-05T01:48:47.539Z,9.55
2022-09-05T01:51:46.735Z,10.25
2022-09-05T01:54:33.984Z,8.65
2022-09-05T01:57:20.214Z,10.27
2022-09-05T01:59:54.963Z,9.27
2022-09-05T02:02:40.407Z,7.20
2022-09-05T02:05:48.636Z,6.95
2022-09-05T02:08:23.825Z,6.90
2022-09-05T02:11:09.732Z,7.15
2022-09-05T02:13:36.322Z,6.93
2022-09-05T02:16:18.209Z,6.78
2022-09-05T02:19:06.263Z,7.40
2022-09-05T02:21:33.475Z,6.35
2022-09-05T02:24:32.354Z,6.95
2022-09-05T02:28:05.380Z,7.03
2022-09-05T02:30:34.649Z,7.40
2022-09-05T02:33:13.801Z,7.43
2022-09-05T02:35:46.170Z,7.20
2022-09-05T02:43:47.254Z,7.37
2022-09-05T02:45:08.930Z,8.25
2022-09-05T02:45:10.274Z,7.30
2022-09-05T02:47:50.358Z,8.23
2022-09-05T02:55:38.501Z,7.32
2022-09-05T02:57:34.570Z,7.07
2022-09-05T02:57:39.468Z,7.68
2022-09-05T02:59:51.694Z,7.72
2022-09-05T03:02:27.103Z,7.45
2022-09-05T03:05:23.578Z,7.57
2022-09-05T03:08:05.753Z,8.60
2022-09-05T03:11:03.770Z,9.20
2022-09-05T03:13:54.397Z,8.98
2022-09-05T03:16:47.337Z,8.10
2022-09-05T03:19:33.087Z,9.40
2022-09-05T03:22:11.391Z,8.32
2022-09-05T03:25:05.838Z,8.73
2022-09-05T03:28:20.754Z,9.77
2022-09-05T03:31:22.138Z,9.43
2022-09-05T03:33:58.929Z,10.38
2022-09-05T03:36:48.051Z,11.32
2022-09-05T03:39:52.676Z,10.52
2022-09-05T03:42:49.651Z,10.63
2022-09-05T03:45:26.976Z,11.77
2022-09-05T03:48:28.551Z,11.50
2022-09-05T03:57:08.083Z,11.95
2022-09-05T03:57:13.504Z,11.65
2022-09-05T04:00:23.212Z,11.10
2022-09-05T04:08:07.406Z,11.93
2022-09-05T04:08:16.943Z,11.75
2022-09-05T04:09:06.488Z,11.45
2022-09-05T04:11:37.629Z,12.20
2022-09-05T04:14:26.568Z,11.82
2022-09-05T04:16:59.701Z,13.75
2022-09-05T04:19:49.036Z,13.38
2022-09-05T04:22:25.594Z,10.65
2022-09-05T04:25:02.973Z,10.18
2022-09-05T04:27:41.968Z,10.80
2022-09-05T04:30:38.633Z,12.60
2022-09-05T04:33:23.420Z,11.25
2022-09-05T04:36:08.858Z,11.07
2022-09-05T04:38:45.670Z,10.10
2022-09-05T04:41:16.518Z,10.43
2022-09-05T04:43:59.192Z,10.63
2022-09-05T04:46:53.687Z,9.45
2022-09-05T04:49:30.043Z,10.25
2022-09-05T04:52:22.900Z,9.90
2022-09-05T04:55:25.759Z,10.20
2022-09-05T04:58:07.058Z,9.90
2022-09-05T05:06:05.976Z,9.88
2022-09-05T05:06:10.661Z,9.55
2022-09-05T05:06:45.105Z,10.52
2022-09-05T05:09:25.009Z,9.00
2022-09-05T05:17:58.767Z,10.25
2022-09-05T05:18:06.384Z,10.15
2022-09-05T05:18:56.111Z,10.50
2022-09-05T05:21:30.439Z,9.25
2022-09-05T05:24:01.516Z,10.50
2022-09-05T05:26:36.983Z,10.40
2022-09-05T05:29:19.457Z,10.45
2022-09-05T05:31:51.414Z,11.68
2022-09-05T05:34:25.308Z,10.68
2022-09-05T05:37:00.686Z,10.77
2022-09-05T05:39:30.046Z,11.35
2022-09-05T05:41:59.003Z,11.55
2022-09-05T05:44:54.529Z,11.30
2022-09-05T05:47:31.221Z,11.55
2022-09-05T05:50:14.147Z,12.43
2022-09-05T05:52:59.867Z,11.82
2022-09-05T05:56:07.260Z,12.90
2022-09-05T05:58:42.274Z,13.52
2022-09-05T06:01:38.778Z,16.85
2022-09-05T06:04:21.139Z,15.82
2022-09-05T06:14:51.884Z,20.90
2022-09-05T06:15:00.480Z,29.73
2022-09-05T06:16:35.725Z,39.40
2022-09-05T06:19:34.210Z,83.80
2022-09-05T06:22:37.834Z,105.10
2022-09-05T06:25:54.398Z,101.60
2022-09-05T06:28:59.872Z,95.87
2022-09-05T06:31:42.171Z,96.68
2022-09-05T06:34:35.406Z,82.40
2022-09-05T06:37:09.770Z,59.88
2022-09-05T06:40:02.960Z,50.97
2022-09-05T06:42:50.766Z,60.25
2022-09-05T06:46:02.935Z,73.70
2022-09-05T06:48:44.249Z,99.03
2022-09-05T06:51:27.578Z,109.87
2022-09-05T06:54:09.944Z,107.40
2022-09-05T06:56:47.006Z,100.32
2022-09-05T06:59:51.037Z,93.62
2022-09-05T07:02:58.909Z,86.37
2022-09-05T07:05:45.483Z,78.82
2022-09-05T07:08:35.694Z,75.15
2022-09-05T07:11:15.765Z,70.93
2022-09-05T07:14:33.226Z,72.87
2022-09-05T07:17:16.103Z,72.53
2022-09-05T07:19:56.015Z,68.45
2022-09-05T07:22:48.038Z,63.70
2022-09-05T07:25:20.264Z,63.83
2022-09-05T07:28:29.186Z,60.22
2022-09-05T07:31:00.428Z,58.72
2022-09-05T07:33:31.248Z,60.28
2022-09-05T07:36:10.675Z,59.05
2022-09-05T07:38:55.267Z,58.67
2022-09-05T07:41:39.684Z,58.45
2022-09-05T07:44:12.584Z,58.17
2022-09-05T07:46:42.042Z,57.53
2022-09-05T07:49:16.231Z,55.35
2022-09-05T07:56:53.051Z,52.80
2022-09-05T07:57:15.684Z,52.40
2022-09-05T07:58:08.498Z,47.62
2022-09-05T08:00:36.452Z,50.53
2022-09-05T08:03:14.890Z,47.28
2022-09-05T08:05:49.430Z,46.63
2022-09-05T08:08:22.949Z,43.50
2022-09-05T08:11:23.747Z,45.60
2022-09-05T08:14:10.447Z,43.17
2022-09-05T08:16:43.888Z,41.17
2022-09-05T08:19:32.647Z,39.50
2022-09-05T08:22:02.275Z,40.28
2022-09-05T08:24:38.036Z,34.10
2022-09-05T08:27:23.070Z,34.17
2022-09-05T08:30:24.719Z,36.45
2022-09-05T08:33:10.465Z,35.35
2022-09-05T08:36:01.314Z,39.25
2022-09-05T08:38:40.368Z,42.67
2022-09-05T08:41:17.707Z,38.55
2022-09-05T08:46:37.489Z,35.90
2022-09-05T08:46:50.601Z,36.88
2022-09-05T08:49:39.418Z,36.10
2022-09-05T08:52:26.511Z,32.10
2022-09-05T08:55:25.239Z,32.95
2022-09-05T08:58:15.813Z,25.35
2022-09-05T09:01:00.214Z,23.98
2022-09-05T09:03:52.103Z,25.20
2022-09-05T09:06:42.506Z,22.30
2022-09-05T09:09:45.528Z,22.35
2022-09-05T09:12:43.883Z,22.95
2022-09-05T09:15:25.060Z,22.55
2022-09-05T09:17:53.113Z,22.40
2022-09-05T09:20:48.564Z,20.40
2022-09-05T09:23:49.548Z,23.98
2022-09-05T09:26:24.500Z,23.48
2022-09-05T09:29:00.757Z,21.48
2022-09-05T09:31:52.797Z,20.33
2022-09-05T09:34:25.801Z,18.02
2022-09-05T09:37:15.144Z,17.27
2022-09-05T09:40:04.398Z,12.90
2022-09-05T09:43:06.388Z,13.88
2022-09-05T09:48:28.826Z,8.10
2022-09-05T09:51:26.958Z,5.55
2022-09-05T09:54:16.451Z,5.82
2022-09-05T09:56:59.718Z,4.95
2022-09-05T09:59:26.657Z,4.43
2022-09-05T10:01:59.588Z,4.82
2022-09-05T10:10:38.668Z,4.30
2022-09-05T10:10:51.894Z,6.03
2022-09-05T10:14:22.460Z,7.65
2022-09-05T10:17:22.706Z,10.90
2022-09-05T10:20:19.478Z,9.88
2022-09-05T10:23:16.556Z,8.98
2022-09-05T10:26:14.503Z,8.65
2022-09-05T10:29:37.217Z,10.65
2022-09-05T10:35:10.063Z,8.82
2022-09-05T10:35:27.038Z,10.68
2022-09-05T10:37:57.725Z,8.70
2022-09-05T10:40:27.733Z,8.55
2022-09-05T10:43:08.301Z,8.88
2022-09-05T10:45:49.703Z,12.05
2022-09-05T10:48:26.353Z,8.93
2022-09-05T10:51:26.235Z,8.30
2022-09-05T10:54:37.980Z,7.63
2022-09-05T10:57:23.747Z,9.40
2022-09-05T11:02:21.509Z,8.00
2022-09-05T11:03:00.693Z,6.87
2022-09-05T11:05:38.441Z,6.90
2022-09-05T11:08:27.098Z,5.82
2022-09-05T11:11:26.051Z,5.45
2022-09-05T11:14:21.206Z,6.20
2022-09-05T11:16:58.994Z,5.80
2022-09-05T11:19:41.048Z,3.60
2022-09-05T11:24:59.971Z,3.00
2022-09-05T11:27:35.403Z,2.20
2022-09-05T11:30:07.600Z,2.10
2022-09-05T11:39:45.663Z,2.08
2022-09-05T11:39:54.836Z,2.72
2022-09-05T11:40:28.348Z,2.22
2022-09-05T11:42:43.475Z,1.95
2022-09-05T11:45:40.612Z,2.97
2022-09-05T11:48:44.572Z,2.50
2022-09-05T11:51:45.181Z,2.40
2022-09-05T11:54:34.157Z,2.25
2022-09-05T11:57:09.794Z,2.45
2022-09-05T12:00:31.923Z,2.50
2022-09-05T12:03:57.113Z,2.75
2022-09-05T12:06:19.558Z,2.40
2022-09-05T12:08:59.066Z,2.80
2022-09-05T12:11:45.471Z,3.00
2022-09-05T12:14:51.396Z,4.40
2022-09-05T12:17:40.597Z,4.05
2022-09-05T12:20:22.029Z,3.70
2022-09-05T12:23:36.852Z,3.90
2022-09-05T12:26:30.730Z,3.92
2022-09-05T12:29:35.058Z,3.62
2022-09-05T12:33:40.835Z,3.40
2022-09-05T12:36:06.950Z,3.42
2022-09-05T12:41:42.464Z,3.67
2022-09-05T12:41:44.996Z,4.62
2022-09-05T12:44:40.972Z,5.45
2022-09-05T12:47:19.146Z,5.70
2022-09-05T12:50:03.355Z,4.90
2022-09-05T12:52:44.698Z,5.43
2022-09-05T12:55:17.408Z,4.32
2022-09-05T13:02:59.294Z,3.80
2022-09-05T13:03:02.329Z,3.50
2022-09-05T13:03:53.475Z,3.65
2022-09-05T13:06:31.078Z,3.45
2022-09-05T13:09:19.696Z,3.75
2022-09-05T13:14:58.833Z,3.83
2022-09-05T13:15:22.907Z,3.80
2022-09-05T13:17:59.261Z,3.60
2022-09-05T13:20:34.445Z,4.25
2022-09-05T13:23:11.374Z,4.90
2022-09-05T13:25:43.985Z,6.62
2022-09-05T13:28:14.525Z,7.55
2022-09-05T13:36:12.609Z,9.57
2022-09-05T13:38:06.455Z,9.63
2022-09-05T13:38:09.897Z,11.27
2022-09-05T13:39:59.581Z,9.10
2022-09-05T13:42:57.245Z,8.55
2022-09-05T13:45:27.059Z,7.82
2022-09-05T13:47:53.787Z,7.55
2022-09-05T13:50:31.671Z,7.05
2022-09-05T13:53:37.515Z,6.95
2022-09-05T13:56:24.171Z,6.12
2022-09-05T13:58:58.119Z,5.78
2022-09-05T14:01:36.997Z,7.20
2022-09-05T14:07:45.087Z,8.85
2022-09-05T14:10:25.226Z,8.98
2022-09-05T14:13:04.315Z,10.82
2022-09-05T14:15:59.161Z,10.10
2022-09-05T14:18:58.887Z,11.57
2022-09-05T14:21:30.027Z,10.65
2022-09-05T14:24:27.995Z,9.73
2022-09-05T14:27:19.825Z,10.88
2022-09-05T14:30:00.997Z,11.27
2022-09-05T14:37:45.869Z,11.80
2022-09-05T14:38:00.714Z,12.35
2022-09-05T14:39:31.980Z,11.70
2022-09-05T14:42:21.255Z,11.82
2022-09-05T14:45:06.459Z,11.55
2022-09-05T14:47:47.470Z,10.85
2022-09-05T14:50:35.015Z,9.77
2022-09-05T14:56:50.128Z,8.77
2022-09-05T15:02:39.764Z,9.70
2022-09-05T15:02:50.548Z,8.88
2022-09-05T15:05:11.669Z,8.82
2022-09-05T15:07:41.849Z,8.63
2022-09-05T15:12:17.314Z,10.95
2022-09-05T15:13:07.877Z,10.48
2022-09-05T15:16:03.215Z,11.70
2022-09-05T15:18:44.015Z,12.55
2022-09-05T15:21:35.257Z,12.60
2022-09-05T15:24:25.376Z,13.62
2022-09-05T15:27:01.950Z,9.50
2022-09-05T15:29:34.505Z,9.30
2022-09-05T15:32:22.686Z,7.90
2022-09-05T15:34:52.338Z,8.43
2022-09-05T15:37:28.113Z,7.75
2022-09-05T15:40:12.310Z,7.87
2022-09-05T15:42:50.709Z,6.82
2022-09-05T15:45:26.237Z,6.65
2022-09-05T15:48:26.001Z,7.10
2022-09-05T15:50:57.064Z,6.85
2022-09-05T15:53:37.116Z,6.50
2022-09-05T15:56:10.190Z,8.20
2022-09-05T15:58:53.538Z,8.23
2022-09-05T16:01:58.294Z,8.07
2022-09-05T16:09:06.067Z,8.15
2022-09-05T16:10:49.818Z,7.60
2022-09-05T16:10:50.283Z,7.40
2022-09-05T16:12:57.690Z,8.82
2022-09-05T16:21:05.318Z,9.00
2022-09-05T16:23:19.495Z,8.27
2022-09-05T16:23:33.824Z,9.30
2022-09-05T16:24:05.949Z,9.63
2022-09-05T16:26:41.982Z,9.65
2022-09-05T16:29:26.219Z,12.23
2022-09-05T16:32:02.148Z,12.45
2022-09-05T16:34:56.377Z,12.88
2022-09-05T16:37:38.738Z,13.55
2022-09-05T16:43:21.435Z,12.45
2022-09-05T16:45:57.364Z,12.95
2022-09-05T16:48:44.547Z,12.45
2022-09-05T16:51:50.575Z,13.60
2022-09-05T16:54:55.548Z,13.23
2022-09-05T16:57:35.806Z,14.18
2022-09-05T17:00:07.977Z,13.25
2022-09-05T17:02:50.760Z,13.32
2022-09-05T17:05:39.145Z,13.88
2022-09-05T17:08:23.129Z,12.65
2022-09-05T17:11:03.716Z,12.65
2022-09-05T17:13:54.182Z,13.65
2022-09-05T17:16:36.872Z,13.35
2022-09-05T17:19:04.020Z,14.18
2022-09-05T17:28:30.037Z,13.90
2022-09-05T17:29:18.295Z,18.17
2022-09-05T17:29:34.492Z,18.37
2022-09-05T17:33:44.861Z,17.35
2022-09-05T17:36:22.342Z,18.15
2022-09-05T17:39:16.390Z,13.95
2022-09-05T17:42:19.140Z,12.17
2022-09-05T17:45:02.908Z,9.98
2022-09-05T17:47:36.327Z,8.77
2022-09-05T17:50:39.394Z,6.70
2022-09-05T17:53:25.245Z,6.72
2022-09-05T17:55:55.030Z,5.35
2022-09-05T17:58:49.149Z,5.25
2022-09-05T18:01:29.910Z,4.65
2022-09-05T18:04:15.773Z,5.12
2022-09-05T18:07:00.648Z,3.92
2022-09-05T18:09:55.806Z,3.67
2022-09-05T18:13:31.306Z,3.90
2022-09-05T18:15:27.500Z,3.42
2022-09-05T18:17:54.433Z,3.15
2022-09-05T18:21:12.154Z,2.95
2022-09-05T18:23:54.091Z,3.00
2022-09-05T18:26:24.638Z,3.20
2022-09-05T18:29:14.598Z,3.15
2022-09-05T18:31:43.562Z,2.60
2022-09-05T18:34:15.044Z,2.15
2022-09-05T18:36:45.235Z,2.50
2022-09-05T18:39:29.227Z,2.70
2022-09-05T18:42:26.190Z,2.17
2022-09-05T18:45:03.401Z,1.90
2022-09-05T18:47:57.439Z,2.10
2022-09-05T18:50:32.132Z,2.03
2022-09-05T18:53:10.201Z,2.10
2022-09-05T18:56:20.781Z,2.00
2022-09-05T18:58:51.777Z,2.10
2022-09-05T19:01:48.682Z,1.70
2022-09-05T19:04:41.452Z,2.20
2022-09-05T19:07:14.285Z,2.42
2022-09-05T19:10:00.844Z,2.35
2022-09-05T19:13:00.424Z,2.35
2022-09-05T19:15:31.976Z,2.00
2022-09-05T19:18:26.815Z,1.48
2022-09-05T19:21:11.806Z,1.73
2022-09-05T19:23:55.235Z,1.90
2022-09-05T19:26:23.458Z,1.77
2022-09-05T19:36:44.960Z,1.62
2022-09-05T19:36:52.544Z,1.80
2022-09-05T19:37:06.457Z,2.03
2022-09-05T19:37:38.654Z,1.60
2022-09-05T19:43:24.120Z,1.45
2022-09-05T19:47:28.229Z,1.33
2022-09-05T19:47:44.912Z,1.55
2022-09-05T19:49:09.542Z,1.73
2022-09-05T19:51:38.844Z,1.40
2022-09-05T19:54:06.107Z,1.23
2022-09-05T19:56:38.611Z,2.03
2022-09-05T19:59:27.138Z,1.52
2022-09-05T20:02:02.648Z,1.58
2022-09-05T20:04:35.910Z,1.50
2022-09-05T20:07:15.529Z,1.60
2022-09-05T20:09:47.013Z,1.52
2022-09-05T20:12:24.587Z,1.30
2022-09-05T20:14:52.055Z,1.33
2022-09-05T20:17:26.289Z,1.30
2022-09-05T20:20:25.495Z,1.62
2022-09-05T20:22:57.823Z,1.50
2022-09-05T20:25:40.025Z,1.67
2022-09-05T20:28:21.791Z,1.55
2022-09-05T20:30:54.011Z,1.60
2022-09-05T20:42:55.437Z,1.80
2022-09-05T20:43:17.030Z,1.67
2022-09-05T20:43:29.180Z,1.58
2022-09-05T20:44:24.980Z,1.60
2022-09-05T20:54:08.220Z,1.58
2022-09-05T20:54:16.038Z,1.45
2022-09-05T20:54:23.205Z,1.67
2022-09-05T20:55:41.242Z,1.48
2022-09-05T20:58:31.654Z,1.50
2022-09-05T21:01:32.517Z,1.70
2022-09-05T21:04:05.005Z,1.50
2022-09-05T21:06:34.545Z,1.90
2022-09-05T21:09:15.473Z,1.27
2022-09-05T21:11:50.276Z,1.33
2022-09-05T21:14:20.097Z,1.80
2022-09-05T21:16:56.301Z,1.80
2022-09-05T21:19:34.697Z,1.48
2022-09-05T21:22:17.000Z,1.40
2022-09-05T21:27:25.299Z,1.60
2022-09-05T21:29:59.452Z,1.48
2022-09-05T21:32:38.121Z,1.70
2022-09-05T21:35:34.688Z,1.60
2022-09-05T21:37:58.541Z,1.80
2022-09-05T21:40:25.335Z,1.73
2022-09-05T21:47:35.463Z,1.92
2022-09-05T21:47:41.435Z,1.80
2022-09-05T21:48:27.872Z,1.85
2022-09-05T21:50:58.293Z,1.62
2022-09-05T21:59:18.157Z,1.60
2022-09-05T21:59:20.183Z,1.75
2022-09-05T21:59:41.656Z,1.87
2022-09-05T22:02:17.360Z,1.70
2022-09-05T22:04:44.462Z,2.00
2022-09-05T22:07:21.668Z,2.20
2022-09-05T22:09:59.479Z,1.85
2022-09-05T22:12:36.847Z,2.08
2022-09-05T22:15:27.880Z,2.15
2022-09-05T22:18:06.360Z,2.15
2022-09-05T22:20:51.310Z,1.60
2022-09-05T22:23:36.975Z,1.80
2022-09-05T22:26:07.883Z,1.83
2022-09-05T22:28:38.460Z,1.77
2022-09-05T22:31:07.086Z,2.10
2022-09-05T22:33:35.117Z,2.20
2022-09-05T22:36:01.972Z,1.95
2022-09-05T22:38:29.033Z,1.85
2022-09-05T22:40:57.004Z,1.73
2022-09-05T22:43:23.936Z,2.15
2022-09-05T22:45:56.448Z,2.20
2022-09-05T22:48:23.760Z,1.85
2022-09-05T22:50:50.851Z,2.10
2022-09-05T22:53:17.856Z,2.15
2022-09-05T22:55:44.739Z,2.40
2022-09-05T22:58:13.811Z,2.03
2022-09-05T23:00:41.847Z,1.60
2022-09-05T23:03:09.074Z,1.90
2022-09-05T23:05:36.003Z,1.35
2022-09-05T23:08:05.047Z,1.85
2022-09-05T23:10:33.066Z,2.00
2022-09-05T23:13:04.024Z,1.90
2022-09-05T23:15:31.220Z,2.15
2022-09-05T23:17:59.807Z,2.00
2022-09-05T23:20:28.952Z,2.03
2022-09-05T23:22:56.707Z,2.10
2022-09-05T23:25:24.089Z,1.92
2022-09-05T23:27:50.807Z,2.20
2022-09-05T23:30:18.604Z,2.05
2022-09-05T23:32:46.359Z,1.77
2022-09-05T23:35:14.150Z,2.42
2022-09-05T23:37:45.580Z,2.05
2022-09-05T23:40:13.773Z,2.47
2022-09-05T23:42:41.687Z,2.15
2022-09-05T23:45:09.779Z,2.15
2022-09-05T23:47:37.188Z,1.80
2022-09-05T23:50:04.758Z,1.95
2022-09-05T23:52:37.429Z,2.30
2022-09-05T23:55:04.574Z,2.30
2022-09-05T23:57:31.697Z,2.10
2022-09-05T23:59:58.399Z,1.80
